createdAt,value
2023-07-24T00:00:41.608Z,21.1
2023-07-24T00:02:02.700Z,21.2
2023-07-24T00:03:23.818Z,21
2023-07-24T00:04:44.937Z,21.1
2023-07-24T00:20:05.891Z,20.5
2023-07-24T00:35:26.824Z,19.4
2023-07-24T00:50:46.828Z,18.6
2023-07-24T01:06:07.766Z,18
2023-07-24T01:21:28.743Z,17.8
2023-07-24T01:36:49.709Z,17.9
2023-07-24T01:52:10.674Z,18
2023-07-24T02:07:31.625Z,17.8
2023-07-24T02:22:52.588Z,17.5
2023-07-24T02:38:13.543Z,17.3
2023-07-24T02:53:34.471Z,18.3
2023-07-24T03:08:55.394Z,18.8
2023-07-24T03:24:16.301Z,18.3
2023-07-24T03:39:37.000Z,17.7
2023-07-24T03:54:58.151Z,19
2023-07-24T04:10:18.085Z,20.2
2023-07-24T04:25:38.991Z,19.5
2023-07-24T04:40:59.922Z,23.2
2023-07-24T04:56:20.855Z,25.2
2023-07-24T05:11:41.796Z,24.2
2023-07-24T05:27:02.713Z,26.1
2023-07-24T05:42:23.653Z,26.9
2023-07-24T05:57:44.593Z,28.3
2023-07-24T06:13:05.516Z,29
2023-07-24T06:14:26.611Z,29
2023-07-24T06:15:47.686Z,28.9
2023-07-24T06:17:08.778Z,28.5
2023-07-24T06:18:29.846Z,28.5
2023-07-24T06:19:49.933Z,28.8
2023-07-24T06:21:11.015Z,29.2
2023-07-24T06:22:32.102Z,29.3
2023-07-24T06:23:53.165Z,29.8
2023-07-24T06:25:14.257Z,30.2
2023-07-24T06:26:35.321Z,29.9
2023-07-24T06:27:56.396Z,29.9
2023-07-24T06:29:17.483Z,30.1
2023-07-24T06:30:38.553Z,30.3
2023-07-24T06:31:59.650Z,29
2023-07-24T06:33:20.719Z,28.7
2023-07-24T06:34:41.796Z,28.8
2023-07-24T06:36:02.860Z,29.3
2023-07-24T06:37:23.939Z,29.7
2023-07-24T06:38:44.040Z,29.9
2023-07-24T06:40:05.117Z,30.3
2023-07-24T06:41:26.196Z,30.3
2023-07-24T06:42:47.280Z,30.2
2023-07-24T06:44:08.348Z,30
2023-07-24T06:45:29.417Z,29.6
2023-07-24T06:46:50.508Z,29.4
2023-07-24T06:48:11.577Z,29
2023-07-24T06:49:32.661Z,29
2023-07-24T06:50:53.736Z,28.8
2023-07-24T06:52:14.813Z,28.8
2023-07-24T06:53:35.902Z,28.9
2023-07-24T06:54:56.962Z,29.1
2023-07-24T06:56:17.060Z,29.1
2023-07-24T06:57:38.153Z,28.8
2023-07-24T06:58:59.216Z,28.6
2023-07-24T07:00:20.286Z,28.4
2023-07-24T07:01:41.362Z,28.3
2023-07-24T07:03:02.450Z,28
2023-07-24T07:04:23.521Z,28
2023-07-24T07:05:44.606Z,27.5
2023-07-24T07:07:05.687Z,27.4
2023-07-24T07:08:26.753Z,27.7
2023-07-24T07:09:47.852Z,27.8
2023-07-24T07:11:08.925Z,27.7
2023-07-24T07:12:29.992Z,28
2023-07-24T07:13:51.202Z,28.4
2023-07-24T07:15:12.286Z,28.8
2023-07-24T07:16:33.000Z,28.2
2023-07-24T07:17:54.451Z,28
2023-07-24T07:19:15.515Z,28.4
2023-07-24T07:20:36.594Z,28
2023-07-24T07:23:18.755Z,26.9
2023-07-24T07:24:39.844Z,26.6
2023-07-24T07:26:00.902Z,26.6
2023-07-24T07:27:21.986Z,26.5
2023-07-24T07:28:43.060Z,26.5
2023-07-24T07:30:04.141Z,26.8
2023-07-24T07:31:24.227Z,26.9
2023-07-24T07:32:45.317Z,26.9
2023-07-24T07:34:06.399Z,26.7
2023-07-24T07:35:27.461Z,26.6
2023-07-24T07:36:48.549Z,26.6
2023-07-24T07:39:30.692Z,26.9
2023-07-24T07:40:51.785Z,27
2023-07-24T07:42:12.846Z,27.1
2023-07-24T07:43:33.923Z,27.6
2023-07-24T07:44:55.004Z,27.5
2023-07-24T07:46:16.080Z,27.5
2023-07-24T07:47:37.172Z,27.8
2023-07-24T07:48:58.368Z,27.5
2023-07-24T07:50:19.433Z,27.3
2023-07-24T07:51:40.509Z,27.6
2023-07-24T07:53:01.614Z,27.9
2023-07-24T07:54:22.682Z,28
2023-07-24T07:55:43.759Z,27.6
2023-07-24T07:57:04.848Z,27.4
2023-07-24T07:58:25.912Z,27.3
2023-07-24T07:59:46.984Z,27.4
2023-07-24T08:01:08.077Z,27.6
2023-07-24T08:02:29.141Z,27.8
2023-07-24T08:03:50.244Z,28
2023-07-24T08:05:11.318Z,28.3
2023-07-24T08:06:31.412Z,28.3
2023-07-24T08:07:52.476Z,28.3
2023-07-24T08:09:13.549Z,27.8
2023-07-24T08:10:34.636Z,27.4
2023-07-24T08:11:55.711Z,27.3
2023-07-24T08:13:16.804Z,27.3
2023-07-24T08:14:37.865Z,27.3
2023-07-24T08:15:58.961Z,27.4
2023-07-24T08:17:20.041Z,27.4
2023-07-24T08:18:41.107Z,27.6
2023-07-24T08:20:02.198Z,27.8
2023-07-24T08:21:23.254Z,27.9
2023-07-24T08:22:44.343Z,28.2
2023-07-24T08:24:04.423Z,28.1
2023-07-24T08:25:25.506Z,28.2
2023-07-24T08:26:46.584Z,28.2
2023-07-24T08:28:07.655Z,28.3
2023-07-24T08:29:28.726Z,28.3
2023-07-24T08:30:49.815Z,28.3
2023-07-24T08:32:10.900Z,28.3
2023-07-24T08:33:31.989Z,28.4
2023-07-24T08:34:53.044Z,27.8
2023-07-24T08:36:14.124Z,27.8
2023-07-24T08:37:35.215Z,27.8
2023-07-24T08:38:56.280Z,27.7
2023-07-24T08:40:17.359Z,27.7
2023-07-24T08:41:37.445Z,27.7
2023-07-24T08:42:58.540Z,27.8
2023-07-24T08:44:19.604Z,28
2023-07-24T08:45:40.682Z,28.1
2023-07-24T08:47:01.752Z,28.1
2023-07-24T08:48:22.831Z,28.1
2023-07-24T08:49:43.909Z,27.8
2023-07-24T08:51:04.989Z,27.4
2023-07-24T08:52:26.064Z,27.4
2023-07-24T08:53:47.144Z,27.4
2023-07-24T08:55:08.223Z,27.4
2023-07-24T08:56:29.305Z,27.4
2023-07-24T08:57:50.389Z,27.6
2023-07-24T08:59:10.456Z,27.8
2023-07-24T09:00:31.540Z,27.9
2023-07-24T09:01:52.626Z,28.1
2023-07-24T09:03:13.701Z,28.4
2023-07-24T09:04:34.791Z,28.5
2023-07-24T09:05:55.853Z,28.6
2023-07-24T09:07:16.944Z,28.4
2023-07-24T09:08:38.014Z,28.3
2023-07-24T09:09:59.077Z,28.2
2023-07-24T09:11:20.179Z,28
2023-07-24T09:12:41.256Z,28
2023-07-24T09:14:02.327Z,28.2
2023-07-24T09:15:23.404Z,28.1
2023-07-24T09:16:43.511Z,28.2
2023-07-24T09:18:04.581Z,28.1
2023-07-24T09:19:25.644Z,28.1
2023-07-24T09:20:46.722Z,28
2023-07-24T09:22:07.806Z,27.7
2023-07-24T09:23:27.916Z,27.5
2023-07-24T09:24:48.984Z,27.4
2023-07-24T09:26:10.074Z,27.7
2023-07-24T09:27:31.138Z,27.8
2023-07-24T09:28:52.213Z,27.8
2023-07-24T09:30:13.297Z,27.8
2023-07-24T09:32:55.465Z,27.4
2023-07-24T09:34:16.543Z,27.1
2023-07-24T09:35:37.610Z,27.2
2023-07-24T09:36:58.689Z,27.3
2023-07-24T09:38:19.764Z,27.3
2023-07-24T09:39:40.843Z,27.5
2023-07-24T09:41:00.940Z,27.5
2023-07-24T09:42:22.027Z,27.7
2023-07-24T09:43:43.073Z,27.7
2023-07-24T09:45:04.161Z,27.5
2023-07-24T09:46:25.255Z,27.8
2023-07-24T09:47:46.338Z,28.1
2023-07-24T09:49:07.405Z,28
2023-07-24T09:50:28.492Z,28.1
2023-07-24T09:51:49.560Z,27.9
2023-07-24T09:53:10.646Z,28.1
2023-07-24T09:54:31.725Z,28
2023-07-24T09:55:52.790Z,28.2
2023-07-24T09:57:13.866Z,28.3
2023-07-24T09:58:33.979Z,28.1
2023-07-24T09:59:55.053Z,27.9
2023-07-24T10:01:16.120Z,27.7
2023-07-24T10:02:37.000Z,27.6
2023-07-24T10:05:19.366Z,27.3
2023-07-24T10:06:40.447Z,27.2
2023-07-24T10:08:01.536Z,27.1
2023-07-24T10:09:22.596Z,27.2
2023-07-24T10:10:43.688Z,27.1
2023-07-24T10:12:04.773Z,27.1
2023-07-24T10:13:25.837Z,27
2023-07-24T10:14:46.923Z,27
2023-07-24T10:16:07.017Z,26.9
2023-07-24T10:17:28.079Z,27
2023-07-24T10:18:49.185Z,27
2023-07-24T10:20:10.254Z,27.5
2023-07-24T10:21:31.331Z,28.2
2023-07-24T10:22:52.388Z,28.8
2023-07-24T10:24:13.465Z,29.2
2023-07-24T10:25:34.564Z,29.2
2023-07-24T10:26:55.636Z,29.2
2023-07-24T10:28:16.733Z,29.5
2023-07-24T10:29:37.819Z,29.9
2023-07-24T10:30:58.892Z,30.1
2023-07-24T10:32:19.969Z,30.3
2023-07-24T10:33:40.052Z,30.2
2023-07-24T10:35:01.152Z,29.7
2023-07-24T10:36:22.227Z,29.5
2023-07-24T10:37:43.279Z,29.3
2023-07-24T10:39:04.381Z,29.1
2023-07-24T10:40:25.437Z,29
2023-07-24T10:41:46.514Z,29.4
2023-07-24T10:43:07.615Z,29.4
2023-07-24T10:44:28.685Z,29.7
2023-07-24T10:45:49.774Z,29.9
2023-07-24T10:47:10.000Z,29.9
2023-07-24T10:48:31.918Z,29.9
2023-07-24T10:49:53.011Z,30.1
2023-07-24T10:51:13.098Z,29.9
2023-07-24T10:52:34.179Z,29.5
2023-07-24T10:53:55.262Z,29.4
2023-07-24T10:55:16.340Z,29.5
2023-07-24T10:56:37.410Z,29.7
2023-07-24T10:57:58.486Z,29.7
2023-07-24T10:59:19.572Z,29.4
2023-07-24T11:00:40.636Z,29.2
2023-07-24T11:02:01.705Z,29.4
2023-07-24T11:03:22.773Z,28.9
2023-07-24T11:04:43.857Z,29
2023-07-24T11:06:04.925Z,29.3
2023-07-24T11:07:26.035Z,29.7
2023-07-24T11:08:46.127Z,30.2
2023-07-24T11:10:07.205Z,30
2023-07-24T11:11:28.267Z,30.2
2023-07-24T11:12:49.359Z,30.3
2023-07-24T11:14:10.446Z,30.1
2023-07-24T11:15:31.519Z,30
2023-07-24T11:18:13.656Z,30
2023-07-24T11:19:34.753Z,30.2
2023-07-24T11:20:55.839Z,30.3
2023-07-24T11:22:16.915Z,30.1
2023-07-24T11:23:37.996Z,30.1
2023-07-24T11:24:59.000Z,30
2023-07-24T11:26:19.152Z,30
2023-07-24T11:27:40.231Z,29.8
2023-07-24T11:29:01.313Z,29.9
2023-07-24T11:30:22.407Z,30
2023-07-24T11:31:43.482Z,29.9
2023-07-24T11:33:04.540Z,29.8
2023-07-24T11:34:25.636Z,29.8
2023-07-24T11:35:46.728Z,30
2023-07-24T11:37:07.777Z,30.3
2023-07-24T11:38:28.869Z,30.3
2023-07-24T11:39:49.945Z,29.9
2023-07-24T11:41:11.030Z,29.5
2023-07-24T11:42:32.105Z,29.7
2023-07-24T11:43:52.182Z,29.7
2023-07-24T11:45:13.272Z,29.7
2023-07-24T11:46:34.359Z,29.6
2023-07-24T11:47:55.438Z,29.7
2023-07-24T11:49:16.527Z,29.4
2023-07-24T11:50:37.601Z,29.4
2023-07-24T11:51:58.686Z,29.4
2023-07-24T11:53:19.750Z,29.5
2023-07-24T11:54:40.832Z,29.1
2023-07-24T11:56:01.909Z,29.2
2023-07-24T11:57:22.966Z,29.3
2023-07-24T11:58:44.073Z,29.3
2023-07-24T12:00:05.147Z,29.2
2023-07-24T12:01:25.224Z,29.2
2023-07-24T12:02:46.312Z,29.2
2023-07-24T12:04:07.404Z,29.3
2023-07-24T12:05:28.472Z,29.2
2023-07-24T12:06:49.558Z,29.2
2023-07-24T12:08:10.633Z,29.1
2023-07-24T12:09:31.681Z,29.2
2023-07-24T12:10:52.775Z,29.3
2023-07-24T12:12:13.830Z,29.6
2023-07-24T12:13:34.932Z,29.8
2023-07-24T12:14:56.010Z,30
2023-07-24T12:16:17.081Z,29.7
2023-07-24T12:17:38.158Z,29.8
2023-07-24T12:18:58.255Z,30
2023-07-24T12:20:19.325Z,29.9
2023-07-24T12:21:40.419Z,30
2023-07-24T12:23:01.497Z,30.5
2023-07-24T12:24:22.556Z,30.8
2023-07-24T12:25:43.640Z,31
2023-07-24T12:27:04.731Z,31
2023-07-24T12:28:25.797Z,31.2
2023-07-24T12:29:46.871Z,31.7
2023-07-24T12:31:07.962Z,31.8
2023-07-24T12:32:29.036Z,31.2
2023-07-24T12:33:50.119Z,31
2023-07-24T12:35:11.162Z,30.3
2023-07-24T12:36:31.265Z,30
2023-07-24T12:37:52.355Z,29.8
2023-07-24T12:39:13.416Z,29.7
2023-07-24T12:40:34.518Z,29.6
2023-07-24T12:41:55.593Z,29.6
2023-07-24T12:43:16.641Z,29.8
2023-07-24T12:44:37.750Z,30
2023-07-24T12:45:58.839Z,30
2023-07-24T12:47:19.905Z,30.1
2023-07-24T12:48:40.997Z,30.1
2023-07-24T12:50:02.043Z,29.9
2023-07-24T12:51:23.142Z,29.7
2023-07-24T12:52:44.215Z,29.6
2023-07-24T12:54:04.288Z,29.6
2023-07-24T12:55:25.383Z,29.8
2023-07-24T12:56:46.437Z,29.6
2023-07-24T12:58:07.513Z,29.3
2023-07-24T12:59:28.618Z,29.1
2023-07-24T13:00:49.690Z,28.4
2023-07-24T13:02:10.000Z,28.2
2023-07-24T13:03:31.858Z,28
2023-07-24T13:04:52.914Z,27.9
2023-07-24T13:06:13.987Z,28.2
2023-07-24T13:07:35.058Z,28.2
2023-07-24T13:08:56.168Z,28.2
2023-07-24T13:10:17.252Z,28.2
2023-07-24T13:11:37.329Z,28.4
2023-07-24T13:12:58.419Z,28.5
2023-07-24T13:14:19.502Z,28.6
2023-07-24T13:15:40.564Z,28.6
2023-07-24T13:17:01.658Z,28.4
2023-07-24T13:18:22.729Z,28.3
2023-07-24T13:19:43.796Z,28.3
2023-07-24T13:21:04.852Z,28.2
2023-07-24T13:22:25.926Z,28
2023-07-24T13:23:47.019Z,28.1
2023-07-24T13:25:08.122Z,28.1
2023-07-24T13:26:29.180Z,27.8
2023-07-24T13:27:50.245Z,27.7
2023-07-24T13:29:10.373Z,27.7
2023-07-24T13:30:31.444Z,27.7
2023-07-24T13:31:52.522Z,27.6
2023-07-24T13:33:13.563Z,27.6
2023-07-24T13:34:34.681Z,27.7
2023-07-24T13:35:55.763Z,27.6
2023-07-24T13:37:16.824Z,27.5
2023-07-24T13:38:37.914Z,27.6
2023-07-24T13:39:58.979Z,27.7
2023-07-24T13:41:20.043Z,27.8
2023-07-24T13:42:41.153Z,27.8
2023-07-24T13:44:02.217Z,27.8
2023-07-24T13:45:23.311Z,27.9
2023-07-24T13:46:43.388Z,27.8
2023-07-24T13:48:04.483Z,27.8
2023-07-24T13:49:25.529Z,27.8
2023-07-24T13:50:46.624Z,28
2023-07-24T13:52:07.705Z,28.2
2023-07-24T13:53:28.780Z,28.5
2023-07-24T13:54:48.894Z,28.7
2023-07-24T13:56:09.954Z,28.6
2023-07-24T13:57:31.035Z,28.7
2023-07-24T13:58:52.126Z,28.4
2023-07-24T14:00:13.161Z,28.4
2023-07-24T14:01:34.278Z,28.3
2023-07-24T14:02:55.351Z,28.5
2023-07-24T14:04:16.423Z,28.7
2023-07-24T14:05:37.500Z,28.6
2023-07-24T14:06:58.586Z,28.7
2023-07-24T14:08:19.626Z,28.6
2023-07-24T14:09:40.725Z,28.3
2023-07-24T14:11:01.806Z,28.2
2023-07-24T14:12:21.901Z,28.1
2023-07-24T14:13:42.984Z,28.3
2023-07-24T14:15:04.068Z,28.2
2023-07-24T14:17:46.215Z,28
2023-07-24T14:19:07.303Z,28.1
2023-07-24T14:20:28.377Z,28.2
2023-07-24T14:21:49.422Z,28.1
2023-07-24T14:23:10.528Z,28
2023-07-24T14:24:31.607Z,28.1
2023-07-24T14:25:52.662Z,28.1
2023-07-24T14:27:13.731Z,28.2
2023-07-24T14:28:34.815Z,28.2
2023-07-24T14:29:54.925Z,28.3
2023-07-24T14:31:16.004Z,28.3
2023-07-24T14:32:37.089Z,28.4
2023-07-24T14:33:58.168Z,28.2
2023-07-24T14:35:19.239Z,28.2
2023-07-24T14:36:40.327Z,28.4
2023-07-24T14:38:01.396Z,28.6
2023-07-24T14:39:22.454Z,28.8
2023-07-24T14:40:43.545Z,29
2023-07-24T14:42:04.616Z,29
2023-07-24T14:43:25.708Z,29
2023-07-24T14:44:46.777Z,28.9
2023-07-24T14:46:07.864Z,28.8
2023-07-24T14:47:27.950Z,28.8
2023-07-24T14:48:49.022Z,28.7
2023-07-24T14:50:10.117Z,29.2
2023-07-24T14:51:31.183Z,29.3
2023-07-24T14:52:52.262Z,29.1
2023-07-24T14:54:13.330Z,29.4
2023-07-24T14:55:34.420Z,29.9
2023-07-24T14:56:55.488Z,30.4
2023-07-24T14:58:16.547Z,30.4
2023-07-24T14:59:37.656Z,30.5
2023-07-24T15:00:58.733Z,30.3
2023-07-24T15:02:19.799Z,30.1
2023-07-24T15:03:40.874Z,29.8
2023-07-24T15:05:00.950Z,30.3
2023-07-24T15:06:22.022Z,30.3
2023-07-24T15:07:43.094Z,30.6
2023-07-24T15:09:04.185Z,31
2023-07-24T15:10:25.289Z,30.7
2023-07-24T15:11:46.329Z,30.9
2023-07-24T15:13:07.447Z,30.7
2023-07-24T15:14:28.522Z,30.7
2023-07-24T15:15:49.607Z,30.6
2023-07-24T15:17:10.688Z,30.6
2023-07-24T15:18:31.759Z,30.9
2023-07-24T15:19:52.810Z,31.2
2023-07-24T15:21:13.878Z,30.7
2023-07-24T15:22:33.998Z,30.2
2023-07-24T15:23:55.056Z,29.9
2023-07-24T15:25:16.163Z,29.9
2023-07-24T15:26:37.244Z,30.2
2023-07-24T15:27:58.319Z,30.2
2023-07-24T15:29:19.403Z,29.9
2023-07-24T15:30:40.474Z,29.7
2023-07-24T15:32:01.548Z,29.9
2023-07-24T15:33:22.625Z,29.9
2023-07-24T15:34:43.713Z,30.2
2023-07-24T15:36:04.000Z,30.3
2023-07-24T15:37:25.837Z,30.5
2023-07-24T15:38:46.947Z,30.4
2023-07-24T15:40:07.038Z,30.6
2023-07-24T15:41:28.074Z,30.4
2023-07-24T15:42:49.185Z,30.3
2023-07-24T15:44:10.264Z,29.8
2023-07-24T15:45:31.345Z,29.1
2023-07-24T15:46:52.415Z,28.5
2023-07-24T15:48:13.465Z,28.2
2023-07-24T15:49:34.595Z,27.9
2023-07-24T15:50:55.662Z,27.8
2023-07-24T15:52:16.719Z,27.7
2023-07-24T15:53:37.823Z,27.7
2023-07-24T15:54:58.890Z,27.7
2023-07-24T15:56:19.945Z,27.7
2023-07-24T15:57:40.078Z,27.9
2023-07-24T15:59:01.117Z,28.2
2023-07-24T16:00:22.215Z,28.3
2023-07-24T16:03:04.341Z,28.2
2023-07-24T16:04:25.444Z,28.2
2023-07-24T16:05:46.551Z,28.5
2023-07-24T16:07:07.609Z,28.5
2023-07-24T16:08:28.712Z,28.5
2023-07-24T16:09:49.777Z,28.6
2023-07-24T16:11:10.824Z,28.3
2023-07-24T16:12:31.931Z,28.4
2023-07-24T16:13:53.014Z,28.8
2023-07-24T16:15:13.070Z,29.1
2023-07-24T16:16:34.181Z,29.1
2023-07-24T16:17:55.267Z,28.8
2023-07-24T16:19:16.340Z,28.7
2023-07-24T16:20:37.413Z,28.4
2023-07-24T16:21:58.471Z,28.1
2023-07-24T16:23:19.563Z,27.8
2023-07-24T16:24:40.653Z,27.7
2023-07-24T16:26:01.682Z,27.6
2023-07-24T16:27:22.811Z,27.9
2023-07-24T16:28:43.839Z,28.2
2023-07-24T16:30:04.963Z,28.3
2023-07-24T16:31:26.027Z,28.3
2023-07-24T16:32:46.090Z,28.4
2023-07-24T16:35:28.278Z,28.2
2023-07-24T16:36:49.340Z,28.1
2023-07-24T16:38:10.372Z,27.8
2023-07-24T16:39:31.454Z,27.6
2023-07-24T16:40:52.566Z,27.5
2023-07-24T16:42:13.630Z,27.5
2023-07-24T16:43:34.661Z,27.4
2023-07-24T16:44:55.789Z,27.3
2023-07-24T16:46:16.870Z,27.4
2023-07-24T16:47:37.895Z,27.3
2023-07-24T16:50:20.088Z,27.3
2023-07-24T16:51:40.120Z,27.2
2023-07-24T16:53:01.235Z,27.3
2023-07-24T16:54:22.308Z,27.2
2023-07-24T16:55:43.394Z,27.1
2023-07-24T16:57:04.480Z,27
2023-07-24T16:58:25.544Z,27.1
2023-07-24T16:59:46.616Z,27
2023-07-24T17:01:07.704Z,26.9
2023-07-24T17:02:28.781Z,26.9
2023-07-24T17:03:49.820Z,26.9
2023-07-24T17:05:10.915Z,26.8
2023-07-24T17:06:31.963Z,26.8
2023-07-24T17:07:53.058Z,26.8
2023-07-24T17:09:13.151Z,26.8
2023-07-24T17:10:34.196Z,26.8
2023-07-24T17:11:55.299Z,26.8
2023-07-24T17:13:16.366Z,26.8
2023-07-24T17:14:37.433Z,26.8
2023-07-24T17:15:58.469Z,26.8
2023-07-24T17:17:19.567Z,26.7
2023-07-24T17:18:40.627Z,26.7
2023-07-24T17:20:01.662Z,26.7
2023-07-24T17:21:22.772Z,26.6
2023-07-24T17:22:43.811Z,26.6
2023-07-24T17:24:04.886Z,26.6
2023-07-24T17:25:26.005Z,26.5
2023-07-24T17:26:46.076Z,26.4
2023-07-24T17:28:07.151Z,26.4
2023-07-24T17:29:28.171Z,26.4
2023-07-24T17:30:49.286Z,26.2
2023-07-24T17:32:10.340Z,26.2
2023-07-24T17:33:31.413Z,26.2
2023-07-24T17:34:52.462Z,26.2
2023-07-24T17:36:13.493Z,26.3
2023-07-24T17:37:34.610Z,26.2
2023-07-24T17:38:55.635Z,25.1
2023-07-24T17:40:16.744Z,23.9
2023-07-24T17:41:37.815Z,22.9
2023-07-24T17:42:58.835Z,21.8
2023-07-24T17:44:18.964Z,20.4
2023-07-24T17:45:40.025Z,19.2
2023-07-24T17:47:01.090Z,18.5
2023-07-24T17:48:22.156Z,18
2023-07-24T17:49:43.218Z,17.7
2023-07-24T17:51:04.253Z,17.5
2023-07-24T17:52:25.356Z,17.3
2023-07-24T17:53:46.430Z,17.3
2023-07-24T17:55:07.451Z,17.2
2023-07-24T17:56:28.561Z,17.2
2023-07-24T17:57:49.622Z,17.2
2023-07-24T17:59:10.683Z,17.2
2023-07-24T18:00:31.754Z,17.1
2023-07-24T18:01:51.839Z,17.2
2023-07-24T18:03:12.906Z,17.2
2023-07-24T18:04:33.000Z,17.2
2023-07-24T18:05:55.053Z,17.2
2023-07-24T18:07:16.109Z,17.1
2023-07-24T18:08:37.185Z,17.1
2023-07-24T18:09:58.248Z,17.1
2023-07-24T18:11:19.261Z,17.1
2023-07-24T18:12:40.375Z,17
2023-07-24T18:14:01.434Z,17.1
2023-07-24T18:15:22.507Z,17.1
2023-07-24T18:16:43.542Z,17.1
2023-07-24T18:18:04.610Z,17.1
2023-07-24T18:19:25.794Z,17.1
2023-07-24T18:20:46.872Z,17.1
2023-07-24T18:22:07.919Z,17.1
2023-07-24T18:23:29.009Z,17.1
2023-07-24T18:24:50.057Z,17
2023-07-24T18:26:10.163Z,17
2023-07-24T18:27:31.223Z,17
2023-07-24T18:28:52.302Z,17
2023-07-24T18:30:13.366Z,17.1
2023-07-24T18:31:34.430Z,17
2023-07-24T18:32:55.476Z,17.1
2023-07-24T18:34:16.568Z,17
2023-07-24T18:35:37.633Z,16.9
2023-07-24T18:38:19.756Z,17
2023-07-24T18:39:40.841Z,16.9
2023-07-24T18:41:01.905Z,16.9
2023-07-24T18:43:44.016Z,16.9
2023-07-24T18:45:04.123Z,16.9
2023-07-24T18:46:25.164Z,16.7
2023-07-24T18:47:46.258Z,16.7
2023-07-24T18:49:07.313Z,16.8
2023-07-24T18:51:49.453Z,16.8
2023-07-24T18:54:30.604Z,16.9
2023-07-24T18:55:50.698Z,16.8
2023-07-24T18:57:10.788Z,16.7
2023-07-24T18:58:31.854Z,16.7
2023-07-24T18:59:52.905Z,16.6
2023-07-24T19:01:13.972Z,16.6
2023-07-24T19:02:35.055Z,16.6
2023-07-24T19:03:56.112Z,16.6
2023-07-24T19:05:17.173Z,16.6
2023-07-24T19:06:38.247Z,16.6
2023-07-24T19:07:59.296Z,16.6
2023-07-24T19:09:19.405Z,16.5
2023-07-24T19:10:39.490Z,16.5
2023-07-24T19:12:00.561Z,16.4
2023-07-24T19:13:21.618Z,16.6
2023-07-24T19:14:42.694Z,16.6
2023-07-24T19:16:03.739Z,16.5
2023-07-24T19:17:24.825Z,16.6
2023-07-24T19:18:45.885Z,16.6
2023-07-24T19:20:06.957Z,16.6
2023-07-24T19:21:27.996Z,16.6
2023-07-24T19:22:49.086Z,16.6
2023-07-24T19:24:10.131Z,16.7
2023-07-24T19:25:31.208Z,16.6
2023-07-24T19:26:52.272Z,16.8
2023-07-24T19:28:12.355Z,16.9
2023-07-24T19:29:33.429Z,16.9
2023-07-24T19:30:54.489Z,17.1
2023-07-24T19:32:15.557Z,17.2
2023-07-24T19:34:57.739Z,17.2
2023-07-24T19:36:18.800Z,17.2
2023-07-24T19:37:39.894Z,17.2
2023-07-24T19:39:00.983Z,17.4
2023-07-24T19:40:22.067Z,17.2
2023-07-24T19:41:43.180Z,17.2
2023-07-24T19:43:04.294Z,17.2
2023-07-24T19:44:25.371Z,17.2
2023-07-24T19:45:45.437Z,17.2
2023-07-24T19:47:06.515Z,17.3
2023-07-24T19:48:27.584Z,17.3
2023-07-24T19:49:48.696Z,17.2
2023-07-24T19:51:09.803Z,17.3
2023-07-24T19:52:30.919Z,17.3
2023-07-24T19:53:52.006Z,17.2
2023-07-24T19:55:13.120Z,17.2
2023-07-24T19:56:34.238Z,17.1
2023-07-24T19:57:55.362Z,17.2
2023-07-24T19:59:16.470Z,17.2
2023-07-24T20:00:37.576Z,17.2
2023-07-24T20:01:58.686Z,17.1
2023-07-24T20:03:18.799Z,17.2
2023-07-24T20:04:39.911Z,17.1
2023-07-24T20:06:01.017Z,17.1
2023-07-24T20:07:22.143Z,17.2
2023-07-24T20:08:43.253Z,17.1
2023-07-24T20:10:04.353Z,17
2023-07-24T20:11:25.443Z,17
2023-07-24T20:12:46.568Z,17
2023-07-24T20:14:07.680Z,16.9
2023-07-24T20:15:28.768Z,17
2023-07-24T20:16:49.892Z,16.9
2023-07-24T20:18:11.013Z,16.9
2023-07-24T20:19:32.118Z,17
2023-07-24T20:20:52.220Z,16.9
2023-07-24T20:22:13.343Z,16.7
2023-07-24T20:23:34.456Z,16.9
2023-07-24T20:24:55.563Z,16.7
2023-07-24T20:26:16.671Z,16.7
2023-07-24T20:27:37.788Z,16.8
2023-07-24T20:28:58.904Z,16.7
2023-07-24T20:30:20.008Z,16.8
2023-07-24T20:31:41.105Z,16.7
2023-07-24T20:33:02.225Z,16.7
2023-07-24T20:34:23.332Z,16.8
2023-07-24T20:35:44.444Z,16.8
2023-07-24T20:37:05.531Z,16.9
2023-07-24T20:38:25.669Z,16.8
2023-07-24T20:39:46.780Z,16.9
2023-07-24T20:41:07.887Z,16.9
2023-07-24T20:42:29.000Z,16.9
2023-07-24T20:43:50.118Z,16.8
2023-07-24T20:45:11.204Z,16.8
2023-07-24T20:46:32.340Z,16.8
2023-07-24T20:47:53.416Z,16.8
2023-07-24T20:49:14.553Z,16.8
2023-07-24T20:50:35.662Z,16.8
2023-07-24T20:51:56.768Z,16.7
2023-07-24T20:53:17.865Z,16.8
2023-07-24T20:54:38.981Z,16.8
2023-07-24T20:55:59.106Z,16.8
2023-07-24T20:57:20.224Z,16.7
2023-07-24T20:58:41.315Z,16.7
2023-07-24T21:00:02.434Z,16.7
2023-07-24T21:01:23.522Z,16.7
2023-07-24T21:02:44.627Z,16.6
2023-07-24T21:04:05.751Z,16.6
2023-07-24T21:05:26.873Z,16.5
2023-07-24T21:06:47.978Z,16.6
2023-07-24T21:08:09.088Z,16.7
2023-07-24T21:09:30.198Z,16.6
2023-07-24T21:10:51.310Z,16.5
2023-07-24T21:12:12.387Z,16.6
2023-07-24T21:13:32.536Z,16.7
2023-07-24T21:14:53.629Z,16.6
2023-07-24T21:16:14.756Z,16.7
2023-07-24T21:17:35.868Z,16.6
2023-07-24T21:18:56.962Z,16.7
2023-07-24T21:20:18.076Z,16.6
2023-07-24T21:21:39.201Z,16.6
2023-07-24T21:23:00.301Z,16.6
2023-07-24T21:24:21.415Z,16.5
2023-07-24T21:25:42.521Z,16.6
2023-07-24T21:27:03.625Z,16.5
2023-07-24T21:28:24.724Z,16.5
2023-07-24T21:29:45.837Z,16.5
2023-07-24T21:45:05.818Z,16.4
2023-07-24T22:00:26.779Z,16.2
2023-07-24T22:15:47.744Z,16.2
2023-07-24T22:31:08.675Z,16
2023-07-24T22:46:29.676Z,15.6
2023-07-24T23:01:50.631Z,15.4
2023-07-24T23:17:11.593Z,15.2
2023-07-24T23:32:32.546Z,14.9
2023-07-24T23:47:53.520Z,15.4
